createdAt,value
2019-05-11T00:00:12.937Z,9.30
2019-05-11T00:02:42.442Z,9.30
2019-05-11T00:05:11.997Z,9.30
2019-05-11T00:07:41.570Z,9.30
2019-05-11T00:10:11.321Z,9.30
2019-05-11T00:12:40.822Z,9.30
2019-05-11T00:15:10.441Z,9.30
2019-05-11T00:17:39.957Z,9.40
2019-05-11T00:20:09.736Z,9.40
2019-05-11T00:22:39.241Z,9.40
2019-05-11T00:25:09.513Z,9.40
2019-05-11T00:27:39.070Z,9.40
2019-05-11T00:30:09.313Z,9.40
2019-05-11T00:32:38.881Z,9.40
2019-05-11T00:35:08.449Z,9.40
2019-05-11T00:37:37.938Z,9.40
2019-05-11T00:40:14.588Z,9.40
2019-05-11T00:42:38.985Z,9.40
2019-05-11T00:45:08.630Z,9.40
2019-05-11T00:47:38.174Z,9.30
2019-05-11T00:50:10.080Z,9.30
2019-05-11T00:52:39.566Z,9.30
2019-05-11T00:55:10.107Z,9.30
2019-05-11T00:57:39.577Z,9.40
2019-05-11T01:00:09.419Z,9.40
2019-05-11T01:02:38.964Z,9.40
2019-05-11T01:05:23.571Z,9.40
2019-05-11T01:07:53.044Z,9.40
2019-05-11T01:10:28.955Z,9.40
2019-05-11T01:12:53.654Z,9.40
2019-05-11T01:15:23.297Z,9.50
2019-05-11T01:17:52.778Z,9.50
2019-05-11T01:20:22.418Z,9.50
2019-05-11T01:22:51.970Z,9.40
2019-05-11T01:25:21.475Z,9.40
2019-05-11T01:27:50.963Z,9.50
2019-05-11T01:30:20.543Z,9.50
2019-05-11T01:32:50.098Z,9.50
2019-05-11T01:35:19.615Z,9.50
2019-05-11T01:37:49.091Z,9.50
2019-05-11T01:40:18.734Z,9.50
2019-05-11T01:42:48.292Z,9.50
2019-05-11T01:45:17.857Z,9.50
2019-05-11T01:47:47.341Z,9.50
2019-05-11T01:50:16.849Z,9.50
2019-05-11T01:52:47.303Z,9.50
2019-05-11T01:55:16.765Z,9.40
2019-05-11T01:57:46.203Z,9.40
2019-05-11T02:00:16.033Z,9.30
2019-05-11T02:02:45.465Z,9.30
2019-05-11T02:05:30.882Z,9.20
2019-05-11T02:08:01.805Z,9.20
2019-05-11T02:10:32.008Z,9.20
2019-05-11T02:13:01.615Z,9.20
2019-05-11T02:15:31.198Z,9.10
2019-05-11T02:18:00.646Z,9.10
2019-05-11T02:20:30.254Z,9.10
2019-05-11T02:22:59.707Z,9.10
2019-05-11T02:25:29.176Z,9.10
2019-05-11T02:27:58.619Z,9.00
2019-05-11T02:30:28.367Z,9.00
2019-05-11T02:32:57.812Z,9.00
2019-05-11T02:35:27.456Z,9.00
2019-05-11T02:37:56.901Z,9.00
2019-05-11T02:40:26.539Z,9.00
2019-05-11T02:42:55.988Z,9.10
2019-05-11T02:45:40.603Z,9.00
2019-05-11T02:48:10.174Z,9.10
2019-05-11T02:50:39.765Z,9.10
2019-05-11T02:53:09.860Z,9.10
2019-05-11T02:55:40.160Z,9.10
2019-05-11T02:58:09.984Z,9.20
2019-05-11T03:00:41.369Z,9.20
2019-05-11T03:03:10.795Z,9.30
2019-05-11T03:05:40.618Z,9.30
2019-05-11T03:08:10.423Z,9.40
2019-05-11T03:10:39.915Z,9.40
2019-05-11T03:13:09.417Z,9.50
2019-05-11T03:15:38.980Z,9.50
2019-05-11T03:18:08.581Z,9.50
2019-05-11T03:20:38.040Z,9.50
2019-05-11T03:23:07.483Z,9.50
2019-05-11T03:25:37.013Z,9.60
2019-05-11T03:28:06.518Z,9.60
2019-05-11T03:30:36.368Z,9.60
2019-05-11T03:33:05.888Z,9.60
2019-05-11T03:35:35.382Z,9.60
2019-05-11T03:38:05.012Z,9.60
2019-05-11T03:40:34.468Z,9.60
2019-05-11T03:43:03.955Z,9.60
2019-05-11T03:45:33.467Z,9.60
2019-05-11T03:48:03.000Z,9.60
2019-05-11T03:50:32.464Z,9.60
2019-05-11T03:53:01.942Z,9.60
2019-05-11T03:55:31.852Z,9.60
2019-05-11T03:58:07.355Z,9.60
2019-05-11T04:00:36.853Z,9.60
2019-05-11T04:03:06.318Z,9.60
2019-05-11T04:05:35.767Z,9.60
2019-05-11T04:08:05.235Z,9.60
2019-05-11T04:10:34.692Z,9.60
2019-05-11T04:13:04.304Z,9.60
2019-05-11T04:15:33.747Z,9.60
2019-05-11T04:18:03.297Z,9.70
2019-05-11T04:20:32.743Z,9.70
2019-05-11T04:23:02.211Z,9.70
2019-05-11T04:25:31.666Z,9.70
2019-05-11T04:28:01.163Z,9.70
2019-05-11T04:30:30.595Z,9.80
2019-05-11T04:33:00.070Z,9.80
2019-05-11T04:35:29.515Z,9.80
2019-05-11T04:37:58.989Z,9.80
2019-05-11T04:40:28.446Z,9.90
2019-05-11T04:42:57.928Z,9.90
2019-05-11T04:45:27.498Z,9.90
2019-05-11T04:47:56.978Z,10.00
2019-05-11T04:50:26.503Z,10.00
2019-05-11T04:52:56.056Z,10.10
2019-05-11T04:55:25.578Z,10.10
2019-05-11T04:57:55.054Z,10.10
2019-05-11T05:00:24.651Z,10.20
2019-05-11T05:02:54.121Z,10.20
2019-05-11T05:05:23.588Z,10.30
2019-05-11T05:07:53.059Z,10.30
2019-05-11T05:10:23.626Z,10.40
2019-05-11T05:12:54.886Z,10.40
2019-05-11T05:15:24.214Z,10.50
2019-05-11T05:17:53.696Z,10.60
2019-05-11T05:20:24.127Z,10.70
2019-05-11T05:22:54.575Z,10.70
2019-05-11T05:25:24.095Z,10.70
2019-05-11T05:27:53.573Z,10.80
2019-05-11T05:30:23.023Z,10.80
2019-05-11T05:32:52.493Z,10.90
2019-05-11T05:35:21.948Z,10.90
2019-05-11T05:37:51.422Z,11.00
2019-05-11T05:40:20.888Z,11.00
2019-05-11T05:42:51.436Z,11.10
2019-05-11T05:45:20.890Z,11.20
2019-05-11T05:47:50.434Z,11.20
2019-05-11T05:50:20.127Z,11.40
2019-05-11T05:52:49.602Z,11.40
2019-05-11T05:55:19.058Z,11.50
2019-05-11T05:57:48.534Z,11.50
2019-05-11T06:00:18.153Z,11.60
2019-05-11T06:02:47.627Z,11.60
2019-05-11T06:05:17.072Z,11.60
2019-05-11T06:07:47.623Z,11.60
2019-05-11T06:10:17.483Z,11.70
2019-05-11T06:12:46.910Z,11.70
2019-05-11T06:15:16.906Z,11.70
2019-05-11T06:17:46.450Z,11.70
2019-05-11T06:20:15.977Z,11.70
2019-05-11T06:22:45.479Z,11.70
2019-05-11T06:25:15.109Z,11.70
2019-05-11T06:27:45.638Z,11.80
2019-05-11T06:30:15.460Z,11.80
2019-05-11T06:32:44.910Z,11.80
2019-05-11T06:35:14.620Z,11.80
2019-05-11T06:37:44.068Z,11.80
2019-05-11T06:40:13.783Z,11.80
2019-05-11T06:42:43.230Z,11.80
2019-05-11T06:45:12.947Z,11.80
2019-05-11T06:47:42.487Z,11.80
2019-05-11T06:50:12.396Z,11.80
2019-05-11T06:52:41.855Z,11.80
2019-05-11T06:55:11.562Z,11.90
2019-05-11T06:57:41.006Z,11.90
2019-05-11T07:00:10.915Z,11.90
2019-05-11T07:02:40.366Z,12.00
2019-05-11T07:05:10.111Z,12.00
2019-05-11T07:08:10.094Z,12.10
2019-05-11T07:10:38.785Z,12.20
2019-05-11T07:13:08.156Z,12.20
2019-05-11T07:15:37.750Z,12.20
2019-05-11T07:18:07.320Z,12.30
2019-05-11T07:20:49.362Z,12.30
2019-05-11T07:23:07.871Z,12.30
2019-05-11T07:25:37.893Z,12.30
2019-05-11T07:28:06.554Z,12.40
2019-05-11T07:30:36.083Z,12.40
2019-05-11T07:33:07.983Z,12.50
2019-05-11T07:35:38.466Z,12.60
2019-05-11T07:38:13.662Z,12.60
2019-05-11T07:40:43.142Z,12.70
2019-05-11T07:43:12.596Z,12.90
2019-05-11T07:45:42.074Z,13.10
2019-05-11T07:48:11.518Z,13.40
2019-05-11T07:50:40.995Z,13.40
2019-05-11T07:53:10.522Z,13.40
2019-05-11T07:55:39.997Z,13.50
2019-05-11T07:58:09.451Z,13.50
2019-05-11T08:00:39.916Z,13.60
2019-05-11T08:03:09.601Z,13.70
2019-05-11T08:05:39.085Z,13.70
2019-05-11T08:08:08.832Z,14.00
2019-05-11T08:10:39.143Z,14.20
2019-05-11T08:13:09.272Z,14.50
2019-05-11T08:15:38.884Z,14.60
2019-05-11T08:18:08.694Z,14.60
2019-05-11T08:20:38.518Z,14.70
2019-05-11T08:23:09.063Z,14.90
2019-05-11T08:25:38.792Z,15.10
2019-05-11T08:28:11.876Z,15.20
2019-05-11T08:30:39.334Z,15.30
2019-05-11T08:33:08.931Z,15.40
2019-05-11T08:35:39.074Z,15.40
2019-05-11T08:38:08.961Z,15.60
2019-05-11T08:40:38.505Z,15.90
2019-05-11T08:43:08.756Z,16.00
2019-05-11T08:45:39.327Z,16.30
2019-05-11T08:48:10.112Z,16.60
2019-05-11T08:50:39.605Z,16.90
2019-05-11T08:53:09.038Z,17.00
2019-05-11T08:55:38.509Z,17.30
2019-05-11T08:58:08.105Z,17.40
2019-05-11T09:00:38.973Z,17.10
2019-05-11T09:03:08.737Z,17.00
2019-05-11T09:05:39.246Z,17.00
2019-05-11T09:08:08.900Z,16.90
2019-05-11T09:10:39.835Z,16.90
2019-05-11T09:13:15.240Z,17.00
2019-05-11T09:15:44.778Z,17.10
2019-05-11T09:18:14.234Z,17.10
2019-05-11T09:20:43.787Z,16.90
2019-05-11T09:23:13.238Z,16.70
2019-05-11T09:25:43.788Z,16.40
2019-05-11T09:28:13.303Z,16.30
2019-05-11T09:30:42.841Z,16.20
2019-05-11T09:33:12.285Z,16.00
2019-05-11T09:35:49.778Z,15.90
2019-05-11T09:38:12.838Z,15.80
2019-05-11T09:40:42.316Z,15.60
2019-05-11T09:43:11.768Z,15.60
2019-05-11T09:45:48.623Z,15.90
2019-05-11T09:48:17.985Z,16.10
2019-05-11T09:50:48.140Z,16.30
2019-05-11T09:53:17.894Z,16.60
2019-05-11T09:55:48.094Z,17.00
2019-05-11T09:58:19.754Z,17.40
2019-05-11T10:00:48.901Z,17.90
2019-05-11T10:03:19.492Z,18.20
2019-05-11T10:05:49.095Z,18.00
2019-05-11T10:08:24.463Z,17.60
2019-05-11T10:10:53.971Z,16.90
2019-05-11T10:13:23.503Z,16.10
2019-05-11T10:16:03.647Z,15.60
2019-05-11T10:18:24.465Z,15.20
2019-05-11T10:20:54.929Z,14.90
2019-05-11T10:23:24.503Z,14.80
2019-05-11T10:25:53.992Z,14.90
2019-05-11T10:28:23.572Z,15.20
2019-05-11T10:30:53.149Z,15.60
2019-05-11T10:33:22.659Z,16.10
2019-05-11T10:35:52.232Z,16.50
2019-05-11T10:38:21.815Z,16.80
2019-05-11T10:40:51.308Z,17.00
2019-05-11T10:43:20.867Z,17.30
2019-05-11T10:45:51.462Z,17.60
2019-05-11T10:48:22.052Z,17.80
2019-05-11T10:50:51.517Z,18.20
2019-05-11T10:53:21.081Z,18.20
2019-05-11T10:55:50.676Z,18.40
2019-05-11T10:58:20.223Z,18.60
2019-05-11T11:00:50.386Z,18.50
2019-05-11T11:03:19.908Z,18.70
2019-05-11T11:05:49.443Z,18.80
2019-05-11T11:08:19.935Z,19.10
2019-05-11T11:10:49.565Z,20.00
2019-05-11T11:13:19.141Z,19.80
2019-05-11T11:15:48.776Z,20.10
2019-05-11T11:18:18.847Z,19.60
2019-05-11T11:20:48.952Z,19.10
2019-05-11T11:23:17.939Z,18.70
2019-05-11T11:25:48.163Z,18.40
2019-05-11T11:28:17.864Z,18.10
2019-05-11T11:30:48.022Z,17.70
2019-05-11T11:33:18.827Z,17.90
2019-05-11T11:35:48.325Z,18.30
2019-05-11T11:38:28.771Z,18.40
2019-05-11T11:40:58.838Z,18.20
2019-05-11T11:43:28.708Z,18.30
2019-05-11T11:45:58.296Z,18.50
2019-05-11T11:48:28.964Z,18.40
2019-05-11T11:50:58.591Z,18.20
2019-05-11T11:53:28.239Z,18.10
2019-05-11T11:55:58.730Z,17.80
2019-05-11T11:58:28.334Z,17.70
2019-05-11T12:00:58.676Z,17.70
2019-05-11T12:03:29.299Z,17.60
2019-05-11T12:05:58.769Z,17.40
2019-05-11T12:08:28.430Z,17.50
2019-05-11T12:10:58.915Z,17.50
2019-05-11T12:13:31.925Z,17.30
2019-05-11T12:16:01.411Z,17.20
2019-05-11T12:18:31.159Z,17.20
2019-05-11T12:21:00.707Z,17.10
2019-05-11T12:23:30.222Z,17.30
2019-05-11T12:25:59.711Z,17.40
2019-05-11T12:28:29.672Z,17.40
2019-05-11T12:30:58.660Z,17.30
2019-05-11T12:33:28.061Z,17.40
2019-05-11T12:35:58.662Z,17.30
2019-05-11T12:38:28.508Z,17.30
2019-05-11T12:40:58.102Z,17.20
2019-05-11T12:43:27.824Z,16.90
2019-05-11T12:45:58.745Z,16.90
2019-05-11T12:48:28.602Z,16.90
2019-05-11T12:50:58.816Z,17.00
2019-05-11T12:53:28.536Z,16.90
2019-05-11T12:55:58.948Z,16.80
2019-05-11T12:58:28.524Z,16.70
2019-05-11T13:00:58.562Z,16.60
2019-05-11T13:03:28.168Z,16.90
2019-05-11T13:05:58.591Z,17.20
2019-05-11T13:08:29.131Z,17.50
2019-05-11T13:10:58.681Z,17.70
2019-05-11T13:13:28.702Z,18.10
2019-05-11T13:15:58.658Z,18.40
2019-05-11T13:18:28.208Z,18.50
2019-05-11T13:20:58.787Z,18.50
2019-05-11T13:23:29.445Z,18.80
2019-05-11T13:25:58.959Z,18.70
2019-05-11T13:28:37.762Z,18.70
2019-05-11T13:31:08.262Z,18.90
2019-05-11T13:33:38.448Z,19.00
2019-05-11T13:36:09.079Z,19.20
2019-05-11T13:38:38.941Z,19.50
2019-05-11T13:41:08.495Z,19.60
2019-05-11T13:43:38.620Z,19.60
2019-05-11T13:46:08.710Z,19.60
2019-05-11T13:48:38.717Z,19.40
2019-05-11T13:51:08.849Z,19.30
2019-05-11T13:53:37.711Z,19.10
2019-05-11T13:56:07.995Z,18.70
2019-05-11T13:58:38.123Z,18.50
2019-05-11T14:01:08.193Z,18.30
2019-05-11T14:03:37.707Z,18.20
2019-05-11T14:06:08.760Z,18.10
2019-05-11T14:08:38.525Z,18.00
2019-05-11T14:11:08.989Z,17.90
2019-05-11T14:13:38.780Z,17.70
2019-05-11T14:16:20.865Z,17.50
2019-05-11T14:18:50.399Z,17.30
2019-05-11T14:21:19.951Z,17.10
2019-05-11T14:23:49.466Z,16.70
2019-05-11T14:26:19.400Z,16.20
2019-05-11T14:28:48.259Z,15.80
2019-05-11T14:31:18.909Z,15.40
2019-05-11T14:33:49.041Z,15.00
2019-05-11T14:36:28.192Z,14.60
2019-05-11T14:38:57.893Z,14.20
2019-05-11T14:41:28.558Z,13.70
2019-05-11T14:43:58.126Z,13.40
2019-05-11T14:46:34.883Z,13.20
2019-05-11T14:49:04.413Z,13.10
2019-05-11T14:51:34.032Z,13.00
2019-05-11T14:54:03.469Z,12.90
2019-05-11T14:56:32.951Z,12.90
2019-05-11T14:59:02.404Z,12.90
2019-05-11T15:01:31.874Z,12.90
2019-05-11T15:04:01.322Z,12.80
2019-05-11T15:06:30.795Z,12.60
2019-05-11T15:09:00.268Z,12.50
2019-05-11T15:11:29.738Z,12.20
2019-05-11T15:13:59.268Z,12.00
2019-05-11T15:16:28.738Z,11.90
2019-05-11T15:18:58.620Z,11.80
2019-05-11T15:21:28.075Z,11.70
2019-05-11T15:23:58.076Z,11.70
2019-05-11T15:26:27.795Z,11.70
2019-05-11T15:28:58.527Z,11.70
2019-05-11T15:31:28.003Z,11.80
2019-05-11T15:33:57.819Z,11.80
2019-05-11T15:36:28.587Z,11.80
2019-05-11T15:38:58.378Z,11.80
2019-05-11T15:41:28.161Z,11.80
2019-05-11T15:43:57.975Z,11.70
2019-05-11T15:46:28.256Z,11.70
2019-05-11T15:49:03.150Z,11.60
2019-05-11T15:51:29.236Z,11.50
2019-05-11T15:54:12.679Z,11.40
2019-05-11T15:56:42.157Z,11.30
2019-05-11T15:59:11.671Z,11.30
2019-05-11T16:01:41.295Z,11.30
2019-05-11T16:04:10.738Z,11.30
2019-05-11T16:06:40.218Z,11.20
2019-05-11T16:09:09.667Z,11.10
2019-05-11T16:11:39.134Z,11.00
2019-05-11T16:14:09.075Z,10.90
2019-05-11T16:16:42.679Z,10.70
2019-05-11T16:19:15.165Z,10.50
2019-05-11T16:21:43.139Z,10.50
2019-05-11T16:24:12.591Z,10.50
2019-05-11T16:26:42.139Z,10.50
2019-05-11T16:29:11.639Z,10.50
2019-05-11T16:31:41.078Z,10.50
2019-05-11T16:34:10.522Z,10.60
2019-05-11T16:36:41.056Z,10.70
2019-05-11T16:39:10.711Z,10.70
2019-05-11T16:41:40.364Z,10.80
2019-05-11T16:44:09.814Z,10.80
2019-05-11T16:46:39.359Z,10.80
2019-05-11T16:49:24.956Z,10.90
2019-05-11T16:51:40.876Z,11.00
2019-05-11T16:54:10.466Z,11.00
2019-05-11T16:56:40.074Z,11.00
2019-05-11T16:59:09.526Z,11.00
2019-05-11T17:01:38.996Z,11.10
2019-05-11T17:04:08.530Z,11.20
2019-05-11T17:06:38.736Z,11.20
2019-05-11T17:09:08.990Z,11.30
2019-05-11T17:12:00.398Z,11.40
2019-05-11T17:14:30.066Z,11.40
2019-05-11T17:16:59.537Z,11.30
2019-05-11T17:19:42.766Z,11.40
2019-05-11T17:22:00.185Z,11.30
2019-05-11T17:24:29.711Z,11.20
2019-05-11T17:26:59.356Z,11.20
2019-05-11T17:29:28.794Z,11.10
2019-05-11T17:31:58.723Z,11.00
2019-05-11T17:34:28.478Z,11.00
2019-05-11T17:37:00.176Z,10.80
2019-05-11T17:39:29.160Z,10.70
2019-05-11T17:41:58.647Z,10.80
2019-05-11T17:44:29.372Z,10.70
2019-05-11T17:46:58.799Z,10.70
2019-05-11T17:49:28.318Z,10.70
2019-05-11T17:51:57.784Z,10.70
2019-05-11T17:54:28.472Z,10.70
2019-05-11T17:56:58.180Z,10.70
2019-05-11T17:59:28.226Z,10.70
2019-05-11T18:01:58.084Z,10.70
2019-05-11T18:04:27.693Z,10.70
2019-05-11T18:06:58.839Z,10.70
2019-05-11T18:09:28.639Z,10.60
2019-05-11T18:11:58.616Z,10.60
2019-05-11T18:14:29.276Z,10.50
2019-05-11T18:16:59.064Z,10.40
2019-05-11T18:19:28.588Z,10.40
2019-05-11T18:21:58.086Z,10.30
2019-05-11T18:24:28.523Z,10.20
2019-05-11T18:26:59.092Z,10.20
2019-05-11T18:29:28.956Z,10.20
2019-05-11T18:31:58.663Z,10.10
2019-05-11T18:34:28.159Z,10.00
2019-05-11T18:36:57.942Z,9.80
2019-05-11T18:39:28.680Z,9.70
2019-05-11T18:41:58.676Z,9.60
2019-05-11T18:44:28.445Z,9.60
2019-05-11T18:46:59.283Z,9.40
2019-05-11T18:49:28.974Z,9.40
2019-05-11T18:51:58.795Z,9.30
2019-05-11T18:54:28.296Z,9.30
2019-05-11T18:56:58.911Z,9.20
2019-05-11T18:59:28.511Z,9.10
2019-05-11T19:01:58.624Z,9.00
2019-05-11T19:04:28.853Z,9.00
2019-05-11T19:07:11.987Z,9.00
2019-05-11T19:09:29.559Z,8.90
2019-05-11T19:11:59.241Z,8.80
2019-05-11T19:14:28.804Z,8.80
2019-05-11T19:16:59.421Z,8.80
2019-05-11T19:19:30.372Z,8.70
2019-05-11T19:22:00.360Z,8.70
2019-05-11T19:24:30.980Z,8.70
2019-05-11T19:27:08.199Z,8.60
2019-05-11T19:29:38.061Z,8.50
2019-05-11T19:32:10.819Z,8.50
2019-05-11T19:34:38.793Z,8.30
2019-05-11T19:37:08.758Z,8.20
2019-05-11T19:39:39.585Z,8.20
2019-05-11T19:42:09.054Z,8.10
2019-05-11T19:44:38.652Z,8.10
2019-05-11T19:47:08.875Z,8.10
2019-05-11T19:49:38.767Z,8.00
2019-05-11T19:52:08.724Z,8.00
2019-05-11T19:54:38.218Z,8.00
2019-05-11T19:57:08.343Z,7.90
2019-05-11T19:59:38.697Z,7.90
2019-05-11T20:02:08.555Z,7.90
2019-05-11T20:04:39.376Z,7.80
2019-05-11T20:07:08.867Z,7.90
2019-05-11T20:09:38.818Z,7.70
2019-05-11T20:12:07.623Z,7.80
2019-05-11T20:14:37.805Z,7.80
2019-05-11T20:17:08.970Z,7.80
2019-05-11T20:19:38.776Z,7.70
2019-05-11T20:22:08.687Z,7.60
2019-05-11T20:24:37.671Z,7.60
2019-05-11T20:27:08.080Z,7.70
2019-05-11T20:29:38.505Z,7.60
2019-05-11T20:32:08.221Z,7.60
2019-05-11T20:34:38.320Z,7.60
2019-05-11T20:37:08.063Z,7.60
2019-05-11T20:39:37.983Z,7.50
2019-05-11T20:42:08.710Z,7.50
2019-05-11T20:44:38.475Z,7.50
2019-05-11T20:47:08.081Z,7.40
2019-05-11T20:49:38.646Z,7.40
2019-05-11T20:52:08.739Z,7.40
2019-05-11T20:54:38.596Z,7.30
2019-05-11T20:57:08.926Z,7.30
2019-05-11T20:59:38.698Z,7.30
2019-05-11T21:02:09.258Z,7.30
2019-05-11T21:04:40.000Z,7.30
2019-05-11T21:07:09.560Z,7.20
2019-05-11T21:09:39.104Z,7.20
2019-05-11T21:12:08.676Z,7.20
2019-05-11T21:14:38.626Z,7.10
2019-05-11T21:17:09.340Z,7.10
2019-05-11T21:19:42.429Z,7.00
2019-05-11T21:22:10.070Z,7.00
2019-05-11T21:24:39.541Z,6.90
2019-05-11T21:27:09.051Z,7.00
2019-05-11T21:29:39.499Z,6.90
2019-05-11T21:32:09.661Z,6.90
2019-05-11T21:34:39.129Z,6.90
2019-05-11T21:37:09.734Z,6.90
2019-05-11T21:39:39.200Z,6.80
2019-05-11T21:42:09.245Z,6.80
2019-05-11T21:44:38.700Z,6.80
2019-05-11T21:47:08.240Z,6.70
2019-05-11T21:49:37.879Z,6.70
2019-05-11T21:52:07.884Z,6.60
2019-05-11T21:54:38.654Z,6.60
2019-05-11T21:57:08.344Z,6.60
2019-05-11T21:59:38.075Z,6.50
2019-05-11T22:02:10.800Z,6.50
2019-05-11T22:04:38.933Z,6.50
2019-05-11T22:07:08.507Z,6.40
2019-05-11T22:09:41.539Z,6.40
2019-05-11T22:12:11.024Z,6.30
2019-05-11T22:14:41.764Z,6.40
2019-05-11T22:17:11.276Z,6.30
2019-05-11T22:19:40.759Z,6.20
2019-05-11T22:22:21.595Z,6.20
2019-05-11T22:24:41.377Z,6.20
2019-05-11T22:27:10.880Z,6.20
2019-05-11T22:29:40.350Z,6.10
2019-05-11T22:32:09.907Z,6.10
2019-05-11T22:34:39.377Z,6.10
2019-05-11T22:37:08.879Z,6.10
2019-05-11T22:39:38.355Z,6.10
2019-05-11T22:42:08.035Z,6.10
2019-05-11T22:44:38.642Z,6.00
2019-05-11T22:47:08.962Z,6.00
2019-05-11T22:49:39.669Z,6.00
2019-05-11T22:52:09.184Z,5.90
2019-05-11T22:54:38.682Z,5.90
2019-05-11T22:57:09.399Z,5.80
2019-05-11T22:59:38.892Z,5.90
2019-05-11T23:02:10.761Z,5.90
2019-05-11T23:04:39.623Z,5.80
2019-05-11T23:07:09.188Z,5.80
2019-05-11T23:09:38.739Z,5.80
2019-05-11T23:15:32.138Z,5.80
2019-05-11T23:18:01.636Z,5.70
2019-05-11T23:20:31.100Z,5.70
2019-05-11T23:23:01.656Z,5.70
2019-05-11T23:25:32.108Z,5.70
2019-05-11T23:28:01.608Z,5.70
2019-05-11T23:30:31.141Z,5.70
2019-05-11T23:33:00.686Z,5.60
2019-05-11T23:35:30.347Z,5.60
2019-05-11T23:37:59.914Z,5.60
2019-05-11T23:40:29.469Z,5.60
2019-05-11T23:42:58.967Z,5.60
2019-05-11T23:45:28.514Z,5.60
2019-05-11T23:47:59.115Z,5.60
2019-05-11T23:50:28.731Z,5.60
2019-05-11T23:56:09.972Z,5.50
2019-05-11T23:58:39.598Z,5.50
